Time;durP1;ratioP1;P1;durP2;ratioP2;P2;SDS_P1;SDS_P2;PMS_P1;PMS_P2;Temp;Humidity;BMP_temperature;BMP_pressure;BME280_temperature;BME280_humidity;BME280_pressure;Samples;Min_cycle;Max_cycle;Signal;HPM_P1;HPM_P2
2023/10/25 00:01:26;;;;;;;0.10;0.10;;;9.70;99.90;;;;;;5049824;28;20193;-87
2023/10/25 00:03:52;;;;;;;0.10;0.10;;;9.50;99.90;;;;;;5048369;28;20191;-86
2023/10/25 00:06:17;;;;;;;0.10;0.10;;;9.50;99.90;;;;;;5049466;28;20186;-86
2023/10/25 00:08:43;;;;;;;0.20;0.20;;;9.50;99.90;;;;;;5049043;28;20202;-86
2023/10/25 00:11:09;;;;;;;0.20;0.20;;;9.60;99.90;;;;;;5049311;28;20219;-87
2023/10/25 00:13:35;;;;;;;0.20;0.20;;;9.60;99.90;;;;;;5049509;28;20588;-87
2023/10/25 00:16:02;;;;;;;0.10;0.10;;;9.60;99.90;;;;;;5049046;28;20183;-87
2023/10/25 00:18:28;;;;;;;0.20;0.20;;;9.50;99.90;;;;;;5031018;28;20847;-87
2023/10/25 00:20:54;;;;;;;0.20;0.20;;;9.50;99.90;;;;;;5049006;28;20512;-86
2023/10/25 00:23:20;;;;;;;0.20;0.20;;;9.50;99.90;;;;;;5039389;28;21218;-86
2023/10/25 00:25:49;;;;;;;0.20;0.20;;;9.50;99.90;;;;;;5049033;28;21118;-87
2023/10/25 00:28:14;;;;;;;0.20;0.20;;;9.60;99.90;;;;;;5053111;28;20437;-87
2023/10/25 00:30:40;;;;;;;0.20;0.20;;;9.50;99.90;;;;;;5052520;28;20834;-86
2023/10/25 00:33:06;;;;;;;0.20;0.20;;;9.40;99.90;;;;;;5035065;28;20194;-86
2023/10/25 00:35:31;;;;;;;0.20;0.20;;;9.40;99.90;;;;;;5052646;28;20231;-86
2023/10/25 00:37:57;;;;;;;0.20;0.20;;;9.40;99.90;;;;;;5052291;28;20225;-85
2023/10/25 00:40:23;;;;;;;0.20;0.20;;;9.20;99.90;;;;;;5051662;28;20220;-86
2023/10/25 00:42:49;;;;;;;0.20;0.20;;;9.20;99.90;;;;;;5035328;28;20884;-87
2023/10/25 00:45:14;;;;;;;0.10;0.10;;;9.20;99.90;;;;;;5050582;28;20524;-87
2023/10/25 00:47:42;;;;;;;0.20;0.20;;;9.30;99.90;;;;;;5057015;28;20186;-86
2023/10/25 00:50:09;;;;;;;0.10;0.10;;;9.20;99.90;;;;;;5052560;28;20240;-87
2023/10/25 00:52:36;;;;;;;0.20;0.20;;;9.20;99.90;;;;;;5034062;28;21116;-86
2023/10/25 00:55:02;;;;;;;0.20;0.20;;;9.20;99.90;;;;;;5034006;28;20449;-86
2023/10/25 00:57:29;;;;;;;0.20;0.20;;;9.30;99.90;;;;;;5060804;28;20498;-87
2023/10/25 00:59:54;;;;;;;0.20;0.20;;;9.30;99.90;;;;;;5034153;28;20857;-87
2023/10/25 01:02:20;;;;;;;0.10;0.10;;;9.10;99.90;;;;;;5051917;28;20440;-86
2023/10/25 01:04:45;;;;;;;0.20;0.20;;;9.00;99.90;;;;;;5052410;28;20217;-86
2023/10/25 01:07:12;;;;;;;0.20;0.20;;;9.10;99.90;;;;;;5052309;28;20237;-87
2023/10/25 01:09:37;;;;;;;0.20;0.20;;;9.10;99.90;;;;;;5035062;28;20483;-86
2023/10/25 01:12:03;;;;;;;0.20;0.20;;;9.10;99.90;;;;;;5060456;28;20661;-87
2023/10/25 01:14:31;;;;;;;0.20;0.20;;;9.20;99.90;;;;;;5034166;28;20185;-87
2023/10/25 01:16:56;;;;;;;0.20;0.20;;;9.10;99.90;;;;;;5034858;28;20190;-86
2023/10/25 01:19:22;;;;;;;0.20;0.20;;;9.20;99.90;;;;;;5054676;28;20377;-86
2023/10/25 01:21:47;;;;;;;0.20;0.20;;;9.20;99.90;;;;;;5052711;28;20714;-88
2023/10/25 01:24:13;;;;;;;0.20;0.20;;;9.20;99.90;;;;;;5041317;28;20718;-88
2023/10/25 01:26:40;;;;;;;0.20;0.20;;;9.20;99.90;;;;;;5053050;28;20274;-88
2023/10/25 01:29:05;;;;;;;0.20;0.20;;;9.20;99.90;;;;;;5051119;28;20175;-87
2023/10/25 01:31:31;;;;;;;0.20;0.20;;;9.20;99.90;;;;;;5051134;28;20429;-87
2023/10/25 01:33:56;;;;;;;0.20;0.20;;;9.20;99.90;;;;;;5033720;28;20248;-86
2023/10/25 01:36:22;;;;;;;0.20;0.20;;;9.10;99.90;;;;;;5052161;28;20218;-88
2023/10/25 01:38:47;;;;;;;0.20;0.20;;;9.10;99.90;;;;;;5051328;28;20254;-87
2023/10/25 01:41:16;;;;;;;0.20;0.20;;;9.10;99.90;;;;;;5051505;28;20182;-87
2023/10/25 01:43:45;;;;;;;0.20;0.20;;;9.10;99.90;;;;;;5051949;28;20179;-87
2023/10/25 01:46:10;;;;;;;0.20;0.20;;;9.10;99.90;;;;;;5051767;28;20526;-88
2023/10/25 01:48:37;;;;;;;0.20;0.20;;;9.10;99.90;;;;;;5033475;28;20431;-90
2023/10/25 01:51:05;;;;;;;0.20;0.20;;;9.10;99.90;;;;;;5052075;28;20186;-88
2023/10/25 01:53:31;;;;;;;0.20;0.20;;;9.10;99.90;;;;;;5050907;28;20461;-87
2023/10/25 01:55:57;;;;;;;0.20;0.20;;;9.10;99.90;;;;;;5051407;28;20456;-87
2023/10/25 01:58:22;;;;;;;0.20;0.20;;;9.00;99.90;;;;;;5059438;28;20484;-87
2023/10/25 02:00:48;;;;;;;0.20;0.20;;;9.00;99.90;;;;;;5050178;28;20218;-86
2023/10/25 02:03:13;;;;;;;0.20;0.20;;;8.90;99.90;;;;;;5032254;28;20191;-88
2023/10/25 02:05:39;;;;;;;0.20;0.20;;;8.90;99.90;;;;;;5047847;28;20190;-86
2023/10/25 02:08:04;;;;;;;0.20;0.20;;;8.90;99.90;;;;;;5051015;28;20210;-86
2023/10/25 02:10:30;;;;;;;0.20;0.20;;;8.80;99.90;;;;;;5052383;28;20549;-87
2023/10/25 02:12:55;;;;;;;0.20;0.20;;;8.80;99.90;;;;;;5033725;28;20181;-88
2023/10/25 02:15:21;;;;;;;0.20;0.20;;;8.80;99.90;;;;;;5050536;28;20281;-88
2023/10/25 02:17:46;;;;;;;0.20;0.20;;;8.80;99.90;;;;;;5051361;28;20177;-88
2023/10/25 02:20:12;;;;;;;0.20;0.20;;;8.70;99.90;;;;;;5050421;28;20531;-89
2023/10/25 02:22:37;;;;;;;0.20;0.20;;;8.70;99.90;;;;;;5033210;28;20217;-87
2023/10/25 02:25:03;;;;;;;0.20;0.20;;;8.70;99.90;;;;;;5056576;28;20262;-87
2023/10/25 02:27:28;;;;;;;0.20;0.20;;;8.70;99.90;;;;;;5050064;28;21008;-88
2023/10/25 02:29:54;;;;;;;0.20;0.20;;;8.70;99.90;;;;;;5049765;28;20210;-87
2023/10/25 02:32:19;;;;;;;0.20;0.20;;;8.70;99.90;;;;;;5031159;28;20257;-87
2023/10/25 02:34:46;;;;;;;0.20;0.20;;;8.70;99.90;;;;;;5050077;28;20341;-86
2023/10/25 02:37:12;;;;;;;0.20;0.20;;;8.60;99.90;;;;;;5051123;28;20200;-87
2023/10/25 02:39:37;;;;;;;0.20;0.20;;;8.70;99.90;;;;;;5050267;28;20453;-87
2023/10/25 02:42:03;;;;;;;0.20;0.20;;;8.70;99.90;;;;;;5033241;28;20185;-87
2023/10/25 02:44:29;;;;;;;0.20;0.20;;;8.70;99.90;;;;;;5050531;28;20187;-87
2023/10/25 02:46:57;;;;;;;0.20;0.20;;;8.70;99.90;;;;;;5051698;28;20493;-88
2023/10/25 02:49:23;;;;;;;0.20;0.20;;;8.70;99.90;;;;;;5041339;28;20183;-87
2023/10/25 02:51:48;;;;;;;0.20;0.20;;;8.70;99.90;;;;;;5049146;28;20448;-87
2023/10/25 02:54:14;;;;;;;0.20;0.20;;;8.70;99.90;;;;;;5049191;28;20253;-87
2023/10/25 02:56:39;;;;;;;0.20;0.20;;;8.70;99.90;;;;;;5050644;28;20190;-87
2023/10/25 02:59:05;;;;;;;0.20;0.20;;;8.70;99.90;;;;;;5053529;28;20218;-86
2023/10/25 03:01:30;;;;;;;0.20;0.20;;;8.70;99.90;;;;;;5049066;28;20186;-87
2023/10/25 03:03:56;;;;;;;0.20;0.20;;;8.70;99.90;;;;;;5050662;28;20664;-87
2023/10/25 03:06:22;;;;;;;0.20;0.20;;;8.70;99.90;;;;;;5044862;28;20208;-89
2023/10/25 03:08:47;;;;;;;0.20;0.20;;;8.70;99.90;;;;;;5051783;28;20971;-87
2023/10/25 03:11:13;;;;;;;0.20;0.20;;;8.70;99.90;;;;;;5054509;28;20277;-85
2023/10/25 03:13:38;;;;;;;0.20;0.20;;;8.70;99.90;;;;;;5050285;28;20217;-88
2023/10/25 03:16:04;;;;;;;0.20;0.20;;;8.70;99.90;;;;;;5032130;28;20251;-87
2023/10/25 03:18:31;;;;;;;0.20;0.20;;;8.70;99.90;;;;;;5049872;28;20239;-88
2023/10/25 03:21:01;;;;;;;0.20;0.20;;;8.70;99.90;;;;;;5031458;28;20441;-89
2023/10/25 03:23:26;;;;;;;0.20;0.20;;;8.70;99.90;;;;;;5050127;28;20520;-88
2023/10/25 03:25:52;;;;;;;0.20;0.20;;;8.70;99.90;;;;;;5046130;28;20527;-89
2023/10/25 03:28:17;;;;;;;0.20;0.20;;;8.60;99.90;;;;;;5050802;28;20511;-88
2023/10/25 03:30:43;;;;;;;0.20;0.20;;;8.70;99.90;;;;;;5047875;28;20195;-87
2023/10/25 03:33:08;;;;;;;0.20;0.20;;;8.60;99.90;;;;;;5031215;28;20268;-86
2023/10/25 03:35:34;;;;;;;0.20;0.20;;;8.60;99.90;;;;;;5049125;28;20767;-87
2023/10/25 03:37:59;;;;;;;0.20;0.20;;;8.60;99.90;;;;;;5048745;28;20210;-85
2023/10/25 03:40:25;;;;;;;0.20;0.20;;;8.60;99.90;;;;;;5031050;28;20182;-86
2023/10/25 03:42:50;;;;;;;0.20;0.20;;;8.60;99.90;;;;;;5032386;28;20185;-89
2023/10/25 03:45:16;;;;;;;0.20;0.20;;;8.60;99.90;;;;;;5048697;28;20685;-85
2023/10/25 03:47:41;;;;;;;0.20;0.20;;;8.60;99.90;;;;;;5032412;28;20273;-88
2023/10/25 03:50:07;;;;;;;0.20;0.20;;;8.60;99.90;;;;;;5057218;28;20552;-84
2023/10/25 03:52:33;;;;;;;0.20;0.20;;;8.60;99.90;;;;;;5047896;28;20190;-87
2023/10/25 03:54:59;;;;;;;0.20;0.20;;;8.60;99.90;;;;;;5049029;28;20682;-88
2023/10/25 03:57:24;;;;;;;0.20;0.20;;;8.50;99.90;;;;;;5049391;28;20433;-84
2023/10/25 03:59:50;;;;;;;0.20;0.20;;;8.50;99.90;;;;;;5049258;28;20187;-87
2023/10/25 04:02:15;;;;;;;0.20;0.20;;;8.50;99.90;;;;;;5051591;28;20565;-88
2023/10/25 04:04:41;;;;;;;0.20;0.20;;;8.50;99.90;;;;;;5035724;28;20656;-88
2023/10/25 04:07:07;;;;;;;0.20;0.20;;;8.50;99.90;;;;;;5035729;28;20341;-88
2023/10/25 04:09:32;;;;;;;0.20;0.20;;;8.50;99.90;;;;;;5053005;28;20179;-85
2023/10/25 04:11:58;;;;;;;0.20;0.20;;;8.50;99.90;;;;;;5052593;28;20187;-88
2023/10/25 04:14:23;;;;;;;0.20;0.20;;;8.50;99.90;;;;;;5052929;28;20217;-86
2023/10/25 04:16:49;;;;;;;0.20;0.20;;;8.50;99.90;;;;;;5051302;28;20197;-86
2023/10/25 04:19:15;;;;;;;0.20;0.20;;;8.50;99.90;;;;;;5051427;28;20218;-87
2023/10/25 04:21:41;;;;;;;0.20;0.20;;;8.50;99.90;;;;;;5052170;28;20178;-88
2023/10/25 04:24:07;;;;;;;0.20;0.20;;;8.60;99.90;;;;;;5052258;28;20186;-87
2023/10/25 04:26:32;;;;;;;0.20;0.20;;;8.60;99.90;;;;;;5052467;28;20236;-86
2023/10/25 04:28:58;;;;;;;0.30;0.30;;;8.50;99.90;;;;;;5052922;28;20449;-86
2023/10/25 04:31:23;;;;;;;0.20;0.20;;;8.60;99.90;;;;;;5052453;28;20642;-86
2023/10/25 04:33:49;;;;;;;0.20;0.20;;;8.60;99.90;;;;;;5034337;28;20202;-88
2023/10/25 04:36:14;;;;;;;0.20;0.20;;;8.50;99.90;;;;;;5063981;28;20312;-89
2023/10/25 04:38:40;;;;;;;0.20;0.20;;;8.50;99.90;;;;;;5052187;28;20229;-87
2023/10/25 04:41:06;;;;;;;0.20;0.20;;;8.50;99.90;;;;;;5053226;28;20194;-87
2023/10/25 04:43:31;;;;;;;0.20;0.20;;;8.50;99.90;;;;;;5064530;28;20197;-87
2023/10/25 04:45:57;;;;;;;0.20;0.20;;;8.50;99.90;;;;;;5040685;28;20181;-86
2023/10/25 04:48:22;;;;;;;0.10;0.10;;;8.50;99.90;;;;;;5052019;28;20183;-86
2023/10/25 04:50:48;;;;;;;0.20;0.20;;;8.50;99.90;;;;;;5052143;28;20265;-88
2023/10/25 04:53:13;;;;;;;0.20;0.20;;;8.60;99.90;;;;;;5050800;28;20599;-86
2023/10/25 04:55:44;;;;;;;0.20;0.20;;;8.50;99.90;;;;;;5052326;28;20282;-87
2023/10/25 04:58:09;;;;;;;0.20;0.20;;;8.60;99.90;;;;;;5051940;28;20260;-86
2023/10/25 05:00:35;;;;;;;0.20;0.20;;;8.50;99.90;;;;;;5050280;28;20438;-87
2023/10/25 05:03:00;;;;;;;0.20;0.20;;;8.50;99.90;;;;;;5049020;28;20183;-85
2023/10/25 05:05:26;;;;;;;0.20;0.20;;;8.50;99.90;;;;;;5030723;28;20640;-85
2023/10/25 05:07:52;;;;;;;0.20;0.20;;;8.50;99.90;;;;;;5052920;28;20321;-85
2023/10/25 05:10:18;;;;;;;0.20;0.20;;;8.50;99.90;;;;;;5049656;28;20662;-85
2023/10/25 05:12:46;;;;;;;0.20;0.20;;;8.50;99.90;;;;;;5054318;28;20186;-87
2023/10/25 05:15:14;;;;;;;0.20;0.20;;;8.50;99.90;;;;;;5048977;28;20444;-85
2023/10/25 05:17:40;;;;;;;0.20;0.20;;;8.50;99.90;;;;;;5050830;28;20468;-86
2023/10/25 05:20:07;;;;;;;0.20;0.20;;;8.50;99.90;;;;;;5033519;28;20464;-85
2023/10/25 05:22:35;;;;;;;0.20;0.20;;;8.40;99.90;;;;;;5032217;28;20783;-85
2023/10/25 05:25:01;;;;;;;0.20;0.20;;;8.40;99.90;;;;;;5049339;28;20594;-87
2023/10/25 05:27:27;;;;;;;0.20;0.20;;;8.40;99.90;;;;;;5050916;28;20437;-87
2023/10/25 05:29:53;;;;;;;0.20;0.20;;;8.40;99.90;;;;;;5049830;28;20441;-83
2023/10/25 05:32:20;;;;;;;0.20;0.20;;;8.40;99.90;;;;;;5031872;28;20233;-83
2023/10/25 05:34:48;;;;;;;0.20;0.20;;;8.40;99.90;;;;;;5033497;28;20487;-85
2023/10/25 05:37:14;;;;;;;0.20;0.20;;;8.40;99.90;;;;;;5012953;28;20509;-85
2023/10/25 05:39:40;;;;;;;0.20;0.20;;;8.40;99.90;;;;;;5010065;28;20451;-86
2023/10/25 05:42:08;;;;;;;0.20;0.20;;;8.40;99.90;;;;;;5013560;28;21004;-86
2023/10/25 05:44:34;;;;;;;0.20;0.20;;;8.40;99.90;;;;;;5011423;28;20238;-85
2023/10/25 05:46:59;;;;;;;0.20;0.20;;;8.40;99.90;;;;;;5011089;28;21062;-84
2023/10/25 05:49:25;;;;;;;0.20;0.20;;;8.30;99.90;;;;;;5011982;28;20546;-84
2023/10/25 05:51:51;;;;;;;0.30;0.30;;;8.30;99.90;;;;;;5011983;28;20191;-82
2023/10/25 05:54:17;;;;;;;0.20;0.20;;;8.30;99.90;;;;;;5010084;28;20211;-83
2023/10/25 05:56:43;;;;;;;0.20;0.20;;;8.30;99.90;;;;;;5015834;28;20261;-83
2023/10/25 05:59:09;;;;;;;0.20;0.20;;;8.30;99.90;;;;;;5029054;28;20258;-85
2023/10/25 06:01:54;;;;;;;0.20;0.20;;;8.30;99.90;;;;;;5008489;28;20522;-82
2023/10/25 06:04:23;;;;;;;0.20;0.20;;;8.30;99.90;;;;;;5011063;28;20931;-83
2023/10/25 06:06:49;;;;;;;0.20;0.20;;;8.30;99.90;;;;;;5011933;28;20438;-84
2023/10/25 06:09:14;;;;;;;0.20;0.20;;;8.30;99.90;;;;;;5021082;28;20448;-84
2023/10/25 06:11:41;;;;;;;0.20;0.20;;;8.30;99.90;;;;;;5018531;28;20598;-85
2023/10/25 06:14:08;;;;;;;0.20;0.20;;;8.30;99.90;;;;;;4996538;28;20183;-86
2023/10/25 06:16:33;;;;;;;0.20;0.20;;;8.30;99.90;;;;;;5017288;28;20539;-85
2023/10/25 06:18:59;;;;;;;0.20;0.20;;;8.30;99.90;;;;;;5014275;28;20580;-85
2023/10/25 06:21:25;;;;;;;0.20;0.20;;;8.20;99.90;;;;;;5019393;28;20220;-81
2023/10/25 06:23:51;;;;;;;0.20;0.20;;;8.20;99.90;;;;;;5009325;28;20442;-82
2023/10/25 06:26:17;;;;;;;0.20;0.20;;;8.30;99.90;;;;;;5008889;28;20192;-84
2023/10/25 06:28:42;;;;;;;0.20;0.20;;;8.30;99.90;;;;;;5010205;28;20949;-85
2023/10/25 06:31:14;;;;;;;0.20;0.20;;;8.30;99.90;;;;;;5015033;28;20204;-84
2023/10/25 06:33:41;;;;;;;0.20;0.20;;;8.30;99.90;;;;;;5005115;28;20192;-85
2023/10/25 06:36:07;;;;;;;0.20;0.20;;;8.30;99.90;;;;;;5037685;28;20486;-84
2023/10/25 06:38:34;;;;;;;0.20;0.20;;;8.30;99.90;;;;;;5044193;28;20484;-85
2023/10/25 06:41:00;;;;;;;0.20;0.20;;;8.30;99.90;;;;;;5031807;28;20448;-83
2023/10/25 06:43:27;;;;;;;0.20;0.20;;;8.30;99.90;;;;;;5052399;28;20472;-84
2023/10/25 06:45:53;;;;;;;0.20;0.20;;;8.30;99.90;;;;;;5062662;28;20526;-84
2023/10/25 06:48:19;;;;;;;0.20;0.20;;;8.30;99.90;;;;;;5057101;28;20449;-85
2023/10/25 06:50:46;;;;;;;0.20;0.20;;;8.30;99.90;;;;;;5030207;28;20429;-86
2023/10/25 06:53:12;;;;;;;0.20;0.20;;;8.30;99.90;;;;;;5049343;28;20225;-83
2023/10/25 06:55:38;;;;;;;0.30;0.30;;;8.30;99.90;;;;;;5029383;28;20885;-86
2023/10/25 06:58:04;;;;;;;0.20;0.20;;;8.30;99.90;;;;;;5049038;28;20225;-89
2023/10/25 07:00:29;;;;;;;0.20;0.20;;;8.30;99.90;;;;;;5050575;28;20231;-87
2023/10/25 07:03:01;;;;;;;0.20;0.20;;;8.30;99.90;;;;;;5048304;28;20919;-85
2023/10/25 07:05:29;;;;;;;0.20;0.20;;;8.30;99.90;;;;;;5044637;28;20194;-85
2023/10/25 07:07:55;;;;;;;0.20;0.20;;;8.30;99.90;;;;;;5050490;28;20425;-85
2023/10/25 07:10:22;;;;;;;0.20;0.20;;;8.30;99.90;;;;;;5046636;28;20452;-88
2023/10/25 07:12:48;;;;;;;0.20;0.20;;;8.30;99.90;;;;;;5048170;28;20476;-84
2023/10/25 07:15:13;;;;;;;0.20;0.20;;;8.30;99.90;;;;;;5050396;28;20468;-84
2023/10/25 07:17:40;;;;;;;0.20;0.20;;;8.30;99.90;;;;;;5052889;28;20210;-84
2023/10/25 07:20:06;;;;;;;0.20;0.20;;;8.30;99.90;;;;;;5048848;28;20482;-82
2023/10/25 07:22:32;;;;;;;0.20;0.20;;;8.30;99.90;;;;;;5048649;28;20440;-83
2023/10/25 07:24:57;;;;;;;0.20;0.20;;;8.30;99.90;;;;;;5050625;28;20836;-83
2023/10/25 07:27:23;;;;;;;0.20;0.20;;;8.30;99.90;;;;;;5055225;28;20631;-85
2023/10/25 07:29:49;;;;;;;0.20;0.20;;;8.30;99.90;;;;;;5032043;28;20186;-84
2023/10/25 07:32:15;;;;;;;0.20;0.20;;;8.40;99.90;;;;;;5047160;28;20646;-81
2023/10/25 07:34:42;;;;;;;0.20;0.20;;;8.40;99.90;;;;;;5049664;28;20999;-82
2023/10/25 07:37:08;;;;;;;0.20;0.20;;;8.30;99.90;;;;;;5047949;28;20498;-84
2023/10/25 07:39:33;;;;;;;0.20;0.20;;;8.40;99.90;;;;;;5049588;28;20984;-86
2023/10/25 07:42:01;;;;;;;0.20;0.20;;;8.40;99.90;;;;;;5050048;28;20179;-81
2023/10/25 07:44:28;;;;;;;0.20;0.20;;;8.40;99.90;;;;;;5027019;28;20241;-84
2023/10/25 07:46:53;;;;;;;0.20;0.20;;;8.40;99.90;;;;;;5049249;28;20463;-83
2023/10/25 07:49:19;;;;;;;0.20;0.20;;;8.40;99.90;;;;;;5048407;28;20429;-83
2023/10/25 07:51:44;;;;;;;0.20;0.20;;;8.50;99.90;;;;;;5048259;28;20240;-85
2023/10/25 07:54:10;;;;;;;0.20;0.20;;;8.50;99.90;;;;;;5030571;28;20183;-82
2023/10/25 07:56:35;;;;;;;0.30;0.30;;;8.60;99.90;;;;;;5056949;28;20205;-80
2023/10/25 07:59:01;;;;;;;0.20;0.20;;;8.50;99.90;;;;;;5048218;28;20220;-83
2023/10/25 08:01:27;;;;;;;0.20;0.20;;;8.60;99.90;;;;;;5049475;28;20217;-82
2023/10/25 08:03:53;;;;;;;0.20;0.20;;;8.60;99.90;;;;;;5040108;28;20210;-86
2023/10/25 08:06:18;;;;;;;0.20;0.20;;;8.60;99.90;;;;;;5046914;28;20441;-84
2023/10/25 08:08:44;;;;;;;0.20;0.20;;;8.60;99.90;;;;;;5048695;28;20186;-86
2023/10/25 08:11:10;;;;;;;0.20;0.20;;;8.60;99.90;;;;;;5043948;28;20221;-86
2023/10/25 08:13:38;;;;;;;0.20;0.20;;;8.70;99.90;;;;;;5041624;28;20659;-87
2023/10/25 08:16:04;;;;;;;0.20;0.20;;;8.80;99.90;;;;;;5051013;28;20168;-88
2023/10/25 08:18:31;;;;;;;0.20;0.20;;;8.80;99.90;;;;;;5029786;28;20481;-88
2023/10/25 08:20:58;;;;;;;0.20;0.20;;;8.80;99.90;;;;;;5021706;28;20441;-86
2023/10/25 08:23:24;;;;;;;0.20;0.20;;;8.90;99.90;;;;;;5050312;28;20424;-81
2023/10/25 08:25:51;;;;;;;0.20;0.20;;;8.90;99.90;;;;;;5049181;28;20963;-87
2023/10/25 08:28:17;;;;;;;0.20;0.20;;;9.00;99.90;;;;;;5031370;28;20213;-87
2023/10/25 08:30:43;;;;;;;0.20;0.20;;;9.00;99.90;;;;;;5028694;28;20444;-86
2023/10/25 08:33:09;;;;;;;0.20;0.20;;;9.10;99.90;;;;;;5055762;28;20518;-88
2023/10/25 08:35:34;;;;;;;0.20;0.20;;;9.10;99.90;;;;;;5049079;28;20469;-86
2023/10/25 08:37:59;;;;;;;0.20;0.20;;;9.20;99.90;;;;;;5047925;28;20673;-90
2023/10/25 08:40:25;;;;;;;0.20;0.20;;;9.20;99.90;;;;;;5050819;28;20198;-88
2023/10/25 08:42:51;;;;;;;0.10;0.10;;;9.20;99.90;;;;;;5027872;28;20805;-89
2023/10/25 08:45:17;;;;;;;0.20;0.20;;;9.30;99.90;;;;;;5048932;28;20475;-88
2023/10/25 08:47:43;;;;;;;0.20;0.20;;;9.20;99.90;;;;;;5049814;28;20650;-86
2023/10/25 08:50:10;;;;;;;0.20;0.20;;;9.30;99.90;;;;;;5033773;28;20183;-87
2023/10/25 08:52:38;;;;;;;0.20;0.20;;;9.30;99.90;;;;;;5050438;28;20449;-89
2023/10/25 08:55:08;;;;;;;0.20;0.20;;;9.20;99.90;;;;;;5051780;28;20452;-88
2023/10/25 08:57:36;;;;;;;0.20;0.20;;;9.30;99.90;;;;;;5051886;28;20429;-86
2023/10/25 09:00:02;;;;;;;0.20;0.20;;;9.30;99.90;;;;;;5052688;28;20425;-87
2023/10/25 09:02:28;;;;;;;0.13;0.13;;;9.30;99.90;;;;;;5046613;28;20453;-87
2023/10/25 09:05:06;;;;;;;0.20;0.20;;;9.30;99.90;;;;;;5025608;28;20449;-88
2023/10/25 09:07:38;;;;;;;0.20;0.20;;;9.40;99.90;;;;;;5033719;28;20182;-89
2023/10/25 09:10:17;;;;;;;0.20;0.20;;;9.40;99.90;;;;;;5052860;28;20421;-87
2023/10/25 09:12:44;;;;;;;0.20;0.20;;;9.50;99.90;;;;;;5032886;28;20422;-87
2023/10/25 09:15:09;;;;;;;0.10;0.10;;;9.50;99.90;;;;;;5020651;28;20413;-86
2023/10/25 09:17:35;;;;;;;0.20;0.20;;;9.60;99.90;;;;;;5051690;28;20429;-89
2023/10/25 09:20:01;;;;;;;0.20;0.20;;;9.50;99.90;;;;;;5049963;28;20194;-86
2023/10/25 09:22:30;;;;;;;0.20;0.20;;;9.50;99.90;;;;;;5036522;28;20463;-86
2023/10/25 09:24:58;;;;;;;0.20;0.20;;;9.50;99.90;;;;;;5051177;28;20445;-90
2023/10/25 09:27:25;;;;;;;0.20;0.20;;;9.60;99.90;;;;;;5050553;28;20823;-90
2023/10/25 09:29:51;;;;;;;0.20;0.20;;;9.70;99.90;;;;;;5045155;28;20445;-87
2023/10/25 09:32:18;;;;;;;0.20;0.20;;;9.60;99.90;;;;;;5051438;28;20921;-89
2023/10/25 09:34:45;;;;;;;0.20;0.20;;;9.60;99.90;;;;;;5051817;28;20473;-90
2023/10/25 09:37:11;;;;;;;0.20;0.20;;;9.80;99.90;;;;;;5034724;28;20483;-89
2023/10/25 09:39:37;;;;;;;0.10;0.10;;;9.80;99.90;;;;;;5053971;28;20527;-92
2023/10/25 09:42:10;;;;;;;0.20;0.20;;;10.00;99.90;;;;;;5053298;28;20190;-92
2023/10/25 09:44:52;;;;;;;0.20;0.20;;;10.10;99.90;;;;;;5056343;28;20472;-93
2023/10/25 09:47:18;;;;;;;0.20;0.20;;;10.20;99.90;;;;;;5057615;28;20508;-93
2023/10/25 09:49:54;;;;;;;0.10;0.10;;;10.20;99.90;;;;;;5055518;28;20523;-92
2023/10/25 09:52:25;;;;;;;0.20;0.20;;;10.10;99.90;;;;;;5035621;28;20684;-93
2023/10/25 09:54:52;;;;;;;0.20;0.20;;;10.20;99.90;;;;;;5053104;28;20521;-93
2023/10/25 09:57:18;;;;;;;0.10;0.10;;;10.10;99.90;;;;;;5054922;28;20429;-93
2023/10/25 09:59:45;;;;;;;0.10;0.10;;;10.00;99.90;;;;;;5034461;28;20470;-94
2023/10/25 10:02:22;;;;;;;0.20;0.20;;;9.90;99.90;;;;;;5040393;28;20444;-94
2023/10/25 10:05:01;;;;;;;0.20;0.20;;;10.00;99.90;;;;;;5054969;28;20983;-93
2023/10/25 10:07:38;;;;;;;0.20;0.20;;;9.90;99.90;;;;;;5048266;28;20971;-95
2023/10/25 10:10:41;;;;;;;0.20;0.20;;;10.00;99.90;;;;;;5054582;28;20440;-93
2023/10/25 10:13:15;;;;;;;0.20;0.20;;;10.00;99.90;;;;;;5027758;28;20534;-84
2023/10/25 10:16:04;;;;;;;0.20;0.20;;;10.00;99.90;;;;;;5031845;28;20806;-84
2023/10/25 10:18:34;;;;;;;0.20;0.20;;;10.10;99.90;;;;;;5039156;28;20480;-83
2023/10/25 10:21:05;;;;;;;0.20;0.20;;;10.10;99.90;;;;;;5059312;28;20833;-83
2023/10/25 10:23:40;;;;;;;0.20;0.20;;;10.10;99.90;;;;;;5039937;28;20535;-84
2023/10/25 10:26:07;;;;;;;0.20;0.20;;;10.20;99.90;;;;;;5047818;28;20520;-84
2023/10/25 10:28:41;;;;;;;0.10;0.10;;;10.40;99.90;;;;;;5032333;28;20445;-83
2023/10/25 10:31:08;;;;;;;0.20;0.20;;;10.70;99.90;;;;;;5050312;28;20475;-85
2023/10/25 10:33:42;;;;;;;0.10;0.10;;;10.70;99.90;;;;;;5050280;28;20437;-84
2023/10/25 10:36:08;;;;;;;0.20;0.20;;;10.60;99.90;;;;;;5051552;28;20487;-84
2023/10/25 10:39:12;;;;;;;0.10;0.10;;;10.50;99.90;;;;;;5049154;28;20469;-84
2023/10/25 10:41:41;;;;;;;0.10;0.10;;;10.70;99.90;;;;;;5027799;28;20228;-83
2023/10/25 10:44:07;;;;;;;0.10;0.10;;;11.50;99.90;;;;;;5049095;28;20464;-82
2023/10/25 10:46:42;;;;;;;0.10;0.10;;;12.10;99.90;;;;;;5030565;28;20983;-83
2023/10/25 10:49:11;;;;;;;0.20;0.20;;;11.70;99.90;;;;;;5047768;28;20519;-85
2023/10/25 10:51:37;;;;;;;0.10;0.10;;;11.90;99.90;;;;;;5048514;28;20436;-84
2023/10/25 10:54:03;;;;;;;0.10;0.10;;;12.70;99.90;;;;;;5030179;28;20804;-83
2023/10/25 10:56:28;;;;;;;0.10;0.10;;;13.70;99.90;;;;;;5047643;28;20444;-84
2023/10/25 10:58:54;;;;;;;0.10;0.10;;;13.70;99.90;;;;;;5048346;28;20364;-84
2023/10/25 11:01:20;;;;;;;0.10;0.10;;;14.30;99.90;;;;;;5048944;28;20273;-85
2023/10/25 11:03:45;;;;;;;0.10;0.10;;;13.90;99.90;;;;;;5049179;28;20304;-83
2023/10/25 11:06:11;;;;;;;0.10;0.10;;;13.50;99.90;;;;;;5045533;28;20175;-86
2023/10/25 11:08:36;;;;;;;0.10;0.10;;;12.90;99.90;;;;;;5048639;28;20214;-84
2023/10/25 11:11:02;;;;;;;0.10;0.10;;;12.40;99.90;;;;;;5047677;28;20179;-83
2023/10/25 11:13:28;;;;;;;0.10;0.10;;;12.40;99.90;;;;;;5027554;28;20634;-84
2023/10/25 11:16:08;;;;;;;0.10;0.10;;;12.40;99.90;;;;;;5058095;28;20594;-83
2023/10/25 11:18:34;;;;;;;0.10;0.10;;;11.90;99.90;;;;;;5047034;28;20489;-85
2023/10/25 11:21:00;;;;;;;0.10;0.10;;;11.90;99.90;;;;;;5056775;28;20436;-85
2023/10/25 11:23:26;;;;;;;0.10;0.10;;;12.90;99.90;;;;;;5047431;28;20453;-84
2023/10/25 11:25:52;;;;;;;0.10;0.10;;;13.20;99.90;;;;;;5048554;28;20197;-85
2023/10/25 11:28:20;;;;;;;0.10;0.10;;;13.00;99.90;;;;;;5047193;28;20179;-85
2023/10/25 11:30:48;;;;;;;0.10;0.10;;;13.00;99.90;;;;;;5035140;28;20447;-84
2023/10/25 11:33:15;;;;;;;0.10;0.10;;;14.20;99.90;;;;;;5062483;28;20425;-86
2023/10/25 11:35:42;;;;;;;0.10;0.10;;;15.00;99.90;;;;;;5047999;28;20826;-87
2023/10/25 11:38:09;;;;;;;0.10;0.10;;;15.60;99.90;;;;;;5030215;28;21004;-88
2023/10/25 11:40:45;;;;;;;0.10;0.10;;;14.50;99.90;;;;;;5055060;28;20448;-85
2023/10/25 11:43:12;;;;;;;0.10;0.10;;;13.90;99.90;;;;;;5049684;28;20523;-86
2023/10/25 11:45:38;;;;;;;0.10;0.10;;;13.90;99.90;;;;;;5031788;28;20566;-87
2023/10/25 11:48:05;;;;;;;0.10;0.10;;;14.20;99.90;;;;;;5050081;28;20563;-86
2023/10/25 11:50:31;;;;;;;0.10;0.10;;;14.70;99.90;;;;;;5057072;28;20437;-84
2023/10/25 11:52:58;;;;;;;0.10;0.10;;;15.10;99.90;;;;;;5049293;28;20445;-87
2023/10/25 11:55:25;;;;;;;0.10;0.10;;;15.60;99.90;;;;;;5032268;28;20630;-88
2023/10/25 11:57:51;;;;;;;0.10;0.00;;;16.10;99.90;;;;;;5048464;28;20964;-87
2023/10/25 12:00:16;;;;;;;0.10;0.10;;;16.80;99.90;;;;;;5028585;28;20496;-86
2023/10/25 12:02:43;;;;;;;0.10;0.00;;;17.10;99.90;;;;;;5050063;28;20206;-87
2023/10/25 12:05:09;;;;;;;0.10;0.00;;;16.30;99.90;;;;;;5031322;28;20187;-86
2023/10/25 12:07:35;;;;;;;0.10;0.00;;;15.10;99.90;;;;;;5047522;28;20433;-87
2023/10/25 12:10:00;;;;;;;0.10;0.10;;;14.30;99.90;;;;;;5048636;28;20948;-87
2023/10/25 12:12:26;;;;;;;0.10;0.00;;;13.80;99.90;;;;;;5050993;28;20253;-86
2023/10/25 12:14:52;;;;;;;0.10;0.10;;;13.70;99.90;;;;;;5032393;28;20187;-84
2023/10/25 12:17:18;;;;;;;0.10;0.10;;;13.30;99.90;;;;;;5031543;28;20205;-83
2023/10/25 12:19:44;;;;;;;0.10;0.10;;;13.40;99.90;;;;;;5051723;28;20225;-84
2023/10/25 12:22:12;;;;;;;0.10;0.10;;;13.30;99.90;;;;;;5067091;28;21002;-84
2023/10/25 12:24:39;;;;;;;0.10;0.10;;;13.20;99.90;;;;;;5050461;28;20866;-83
2023/10/25 12:27:05;;;;;;;0.10;0.10;;;13.50;99.90;;;;;;5037824;28;20478;-84
2023/10/25 12:29:31;;;;;;;0.10;0.10;;;13.60;99.90;;;;;;5052345;28;21678;-83
2023/10/25 12:31:56;;;;;;;0.10;0.10;;;13.80;99.90;;;;;;5052774;28;20429;-84
2023/10/25 12:34:23;;;;;;;0.10;0.10;;;13.50;99.90;;;;;;5047786;28;20222;-83
2023/10/25 12:36:49;;;;;;;0.10;0.10;;;13.80;99.90;;;;;;5052905;28;20205;-84
2023/10/25 12:39:16;;;;;;;0.10;0.10;;;13.90;99.90;;;;;;5051955;28;20488;-87
2023/10/25 12:41:42;;;;;;;0.10;0.10;;;14.00;99.90;;;;;;5053444;28;20528;-84
2023/10/25 12:44:13;;;;;;;0.10;0.00;;;13.80;99.90;;;;;;5034857;28;20421;-84
2023/10/25 12:46:40;;;;;;;0.10;0.00;;;13.90;99.90;;;;;;5035374;28;21691;-84
2023/10/25 12:49:05;;;;;;;;;;;13.70;99.90;;;;;;5053007;28;20426;-83
2023/10/25 12:51:31;;;;;;;;;;;14.00;99.90;;;;;;5051088;28;19909;-83
2023/10/25 12:53:57;;;;;;;0.10;0.10;;;13.80;99.90;;;;;;5033812;28;20171;-84